sensor_id;sensor_type;location;lat;lon;timestamp;temperature;humidity
8537;DHT22;4306;50.210;10.628;2022-08-19T00:01:15;20.60;99.90
8537;DHT22;4306;50.210;10.628;2022-08-19T00:03:42;20.50;99.90
8537;DHT22;4306;50.210;10.628;2022-08-19T00:06:09;20.50;99.90
8537;DHT22;4306;50.210;10.628;2022-08-19T00:08:37;20.40;99.90
8537;DHT22;4306;50.210;10.628;2022-08-19T00:11:04;20.40;99.90
8537;DHT22;4306;50.210;10.628;2022-08-19T00:13:31;20.50;99.90
8537;DHT22;4306;50.210;10.628;2022-08-19T00:15:58;20.50;99.90
8537;DHT22;4306;50.210;10.628;2022-08-19T00:18:26;20.50;99.90
8537;DHT22;4306;50.210;10.628;2022-08-19T00:20:53;20.40;99.90
8537;DHT22;4306;50.210;10.628;2022-08-19T00:23:20;20.30;99.90
8537;DHT22;4306;50.210;10.628;2022-08-19T00:25:48;20.20;99.90
8537;DHT22;4306;50.210;10.628;2022-08-19T00:28:16;20.10;99.90
8537;DHT22;4306;50.210;10.628;2022-08-19T00:30:43;20.10;99.90
8537;DHT22;4306;50.210;10.628;2022-08-19T00:33:10;20.00;99.90
8537;DHT22;4306;50.210;10.628;2022-08-19T00:35:37;20.10;99.90
8537;DHT22;4306;50.210;10.628;2022-08-19T00:38:04;20.10;99.90
8537;DHT22;4306;50.210;10.628;2022-08-19T00:40:32;20.10;99.90
8537;DHT22;4306;50.210;10.628;2022-08-19T00:43:00;20.10;99.90
8537;DHT22;4306;50.210;10.628;2022-08-19T00:45:28;20.00;99.90
8537;DHT22;4306;50.210;10.628;2022-08-19T00:47:57;20.10;99.90
8537;DHT22;4306;50.210;10.628;2022-08-19T00:50:29;19.90;99.90
8537;DHT22;4306;50.210;10.628;2022-08-19T00:52:56;19.90;99.90
8537;DHT22;4306;50.210;10.628;2022-08-19T00:55:26;19.90;99.90
8537;DHT22;4306;50.210;10.628;2022-08-19T00:57:56;19.80;99.90
8537;DHT22;4306;50.210;10.628;2022-08-19T01:00:28;19.80;99.90
8537;DHT22;4306;50.210;10.628;2022-08-19T01:02:55;19.80;99.90
8537;DHT22;4306;50.210;10.628;2022-08-19T01:05:25;19.80;99.90
8537;DHT22;4306;50.210;10.628;2022-08-19T01:07:54;19.80;99.90
8537;DHT22;4306;50.210;10.628;2022-08-19T01:10:25;19.80;99.90
8537;DHT22;4306;50.210;10.628;2022-08-19T01:12:54;19.80;99.90
8537;DHT22;4306;50.210;10.628;2022-08-19T01:15:24;19.60;99.90
8537;DHT22;4306;50.210;10.628;2022-08-19T01:17:55;19.50;99.90
8537;DHT22;4306;50.210;10.628;2022-08-19T01:20:23;19.50;99.90
8537;DHT22;4306;50.210;10.628;2022-08-19T01:22:54;19.50;99.90
8537;DHT22;4306;50.210;10.628;2022-08-19T01:25:24;19.50;99.90
8537;DHT22;4306;50.210;10.628;2022-08-19T01:27:53;19.60;99.90
8537;DHT22;4306;50.210;10.628;2022-08-19T01:30:28;19.70;99.90
8537;DHT22;4306;50.210;10.628;2022-08-19T01:32:56;19.70;99.90
8537;DHT22;4306;50.210;10.628;2022-08-19T01:35:25;19.60;99.90
8537;DHT22;4306;50.210;10.628;2022-08-19T01:37:59;19.50;99.90
8537;DHT22;4306;50.210;10.628;2022-08-19T01:40:30;19.40;99.90
8537;DHT22;4306;50.210;10.628;2022-08-19T01:42:58;19.50;99.90
8537;DHT22;4306;50.210;10.628;2022-08-19T01:45:28;19.50;99.90
8537;DHT22;4306;50.210;10.628;2022-08-19T01:47:56;19.60;99.90
8537;DHT22;4306;50.210;10.628;2022-08-19T01:50:23;19.60;99.90
8537;DHT22;4306;50.210;10.628;2022-08-19T01:52:51;19.40;99.90
8537;DHT22;4306;50.210;10.628;2022-08-19T01:55:21;19.50;99.90
8537;DHT22;4306;50.210;10.628;2022-08-19T01:57:51;19.40;99.90
8537;DHT22;4306;50.210;10.628;2022-08-19T02:00:22;19.50;99.90
8537;DHT22;4306;50.210;10.628;2022-08-19T02:02:49;19.50;99.90
8537;DHT22;4306;50.210;10.628;2022-08-19T02:05:17;19.50;99.90
8537;DHT22;4306;50.210;10.628;2022-08-19T02:07:47;19.60;99.90
8537;DHT22;4306;50.210;10.628;2022-08-19T02:10:18;19.60;99.90
8537;DHT22;4306;50.210;10.628;2022-08-19T02:12:47;19.60;99.90
8537;DHT22;4306;50.210;10.628;2022-08-19T02:15:15;19.60;99.90
8537;DHT22;4306;50.210;10.628;2022-08-19T02:17:42;19.60;99.90
8537;DHT22;4306;50.210;10.628;2022-08-19T02:20:10;19.70;99.90
8537;DHT22;4306;50.210;10.628;2022-08-19T02:22:39;19.60;99.90
8537;DHT22;4306;50.210;10.628;2022-08-19T02:25:08;19.60;99.90
8537;DHT22;4306;50.210;10.628;2022-08-19T02:27:35;19.70;99.90
8537;DHT22;4306;50.210;10.628;2022-08-19T02:30:05;19.70;99.90
8537;DHT22;4306;50.210;10.628;2022-08-19T02:32:33;19.70;99.90
8537;DHT22;4306;50.210;10.628;2022-08-19T02:35:00;19.70;99.90
8537;DHT22;4306;50.210;10.628;2022-08-19T02:37:29;19.70;99.90
8537;DHT22;4306;50.210;10.628;2022-08-19T02:40:13;19.70;99.90
8537;DHT22;4306;50.210;10.628;2022-08-19T02:42:40;19.60;99.90
8537;DHT22;4306;50.210;10.628;2022-08-19T02:45:10;19.60;99.90
8537;DHT22;4306;50.210;10.628;2022-08-19T02:47:37;19.70;99.90
8537;DHT22;4306;50.210;10.628;2022-08-19T02:50:05;19.70;99.90
8537;DHT22;4306;50.210;10.628;2022-08-19T02:52:33;19.80;99.90
8537;DHT22;4306;50.210;10.628;2022-08-19T02:55:00;19.80;99.90
8537;DHT22;4306;50.210;10.628;2022-08-19T02:57:27;19.80;99.90
8537;DHT22;4306;50.210;10.628;2022-08-19T02:59:54;19.80;99.90
8537;DHT22;4306;50.210;10.628;2022-08-19T03:02:23;19.80;99.90
8537;DHT22;4306;50.210;10.628;2022-08-19T03:04:50;19.80;99.90
8537;DHT22;4306;50.210;10.628;2022-08-19T03:07:17;19.80;99.90
8537;DHT22;4306;50.210;10.628;2022-08-19T03:09:45;19.80;99.90
8537;DHT22;4306;50.210;10.628;2022-08-19T03:12:12;19.90;99.90
8537;DHT22;4306;50.210;10.628;2022-08-19T03:14:39;19.80;99.90
8537;DHT22;4306;50.210;10.628;2022-08-19T03:17:06;19.80;99.90
8537;DHT22;4306;50.210;10.628;2022-08-19T03:19:35;19.80;99.90
8537;DHT22;4306;50.210;10.628;2022-08-19T03:22:02;19.80;99.90
8537;DHT22;4306;50.210;10.628;2022-08-19T03:24:30;19.80;99.90
8537;DHT22;4306;50.210;10.628;2022-08-19T03:26:58;19.80;99.90
8537;DHT22;4306;50.210;10.628;2022-08-19T03:29:26;19.80;99.90
8537;DHT22;4306;50.210;10.628;2022-08-19T03:31:53;19.80;99.90
8537;DHT22;4306;50.210;10.628;2022-08-19T03:34:23;19.80;99.90
8537;DHT22;4306;50.210;10.628;2022-08-19T03:36:53;19.90;99.90
8537;DHT22;4306;50.210;10.628;2022-08-19T03:39:21;19.90;99.90
8537;DHT22;4306;50.210;10.628;2022-08-19T03:41:50;19.80;99.90
8537;DHT22;4306;50.210;10.628;2022-08-19T03:44:20;19.80;99.90
8537;DHT22;4306;50.210;10.628;2022-08-19T03:46:48;19.80;99.90
8537;DHT22;4306;50.210;10.628;2022-08-19T03:49:16;19.60;99.90
8537;DHT22;4306;50.210;10.628;2022-08-19T03:51:43;19.60;99.90
8537;DHT22;4306;50.210;10.628;2022-08-19T03:54:13;19.70;99.90
8537;DHT22;4306;50.210;10.628;2022-08-19T03:56:43;19.60;99.90
8537;DHT22;4306;50.210;10.628;2022-08-19T03:59:13;19.70;99.90
8537;DHT22;4306;50.210;10.628;2022-08-19T04:01:40;19.80;99.90
8537;DHT22;4306;50.210;10.628;2022-08-19T04:04:07;19.80;99.90
8537;DHT22;4306;50.210;10.628;2022-08-19T04:06:36;19.80;99.90
8537;DHT22;4306;50.210;10.628;2022-08-19T04:09:07;19.70;99.90
8537;DHT22;4306;50.210;10.628;2022-08-19T04:11:38;19.80;99.90
8537;DHT22;4306;50.210;10.628;2022-08-19T04:14:06;19.70;99.90
8537;DHT22;4306;50.210;10.628;2022-08-19T04:16:34;19.80;99.90
8537;DHT22;4306;50.210;10.628;2022-08-19T04:19:03;19.70;99.90
8537;DHT22;4306;50.210;10.628;2022-08-19T04:21:30;19.70;99.90
8537;DHT22;4306;50.210;10.628;2022-08-19T04:23:58;19.80;99.90
8537;DHT22;4306;50.210;10.628;2022-08-19T04:26:27;19.80;99.90
8537;DHT22;4306;50.210;10.628;2022-08-19T04:28:59;19.80;99.90
8537;DHT22;4306;50.210;10.628;2022-08-19T04:31:29;19.80;99.90
8537;DHT22;4306;50.210;10.628;2022-08-19T04:33:58;19.80;99.90
8537;DHT22;4306;50.210;10.628;2022-08-19T04:36:27;19.90;99.90
8537;DHT22;4306;50.210;10.628;2022-08-19T04:38:56;19.90;99.90
8537;DHT22;4306;50.210;10.628;2022-08-19T04:41:23;19.90;99.90
8537;DHT22;4306;50.210;10.628;2022-08-19T04:44:10;19.90;99.90
8537;DHT22;4306;50.210;10.628;2022-08-19T04:46:37;19.90;99.90
8537;DHT22;4306;50.210;10.628;2022-08-19T04:49:05;19.90;99.90
8537;DHT22;4306;50.210;10.628;2022-08-19T04:51:34;19.90;99.90
8537;DHT22;4306;50.210;10.628;2022-08-19T04:54:03;19.90;99.90
8537;DHT22;4306;50.210;10.628;2022-08-19T04:56:30;19.90;99.90
8537;DHT22;4306;50.210;10.628;2022-08-19T04:58:57;19.90;99.90
8537;DHT22;4306;50.210;10.628;2022-08-19T05:01:31;20.00;99.90
8537;DHT22;4306;50.210;10.628;2022-08-19T05:03:59;19.90;99.90
8537;DHT22;4306;50.210;10.628;2022-08-19T05:06:27;19.90;99.90
8537;DHT22;4306;50.210;10.628;2022-08-19T05:08:59;20.00;99.90
8537;DHT22;4306;50.210;10.628;2022-08-19T05:11:28;20.00;99.90
8537;DHT22;4306;50.210;10.628;2022-08-19T05:13:56;20.00;99.90
8537;DHT22;4306;50.210;10.628;2022-08-19T05:16:25;20.00;99.90
8537;DHT22;4306;50.210;10.628;2022-08-19T05:18:54;19.90;99.90
8537;DHT22;4306;50.210;10.628;2022-08-19T05:21:40;19.90;99.90
8537;DHT22;4306;50.210;10.628;2022-08-19T05:24:36;19.80;99.90
8537;DHT22;4306;50.210;10.628;2022-08-19T05:27:04;19.80;99.90
8537;DHT22;4306;50.210;10.628;2022-08-19T05:29:32;19.80;99.90
8537;DHT22;4306;50.210;10.628;2022-08-19T05:32:00;19.80;99.90
8537;DHT22;4306;50.210;10.628;2022-08-19T05:34:29;19.70;99.90
8537;DHT22;4306;50.210;10.628;2022-08-19T05:36:58;19.80;99.90
8537;DHT22;4306;50.210;10.628;2022-08-19T05:39:27;19.80;99.90
8537;DHT22;4306;50.210;10.628;2022-08-19T05:41:57;19.80;99.90
8537;DHT22;4306;50.210;10.628;2022-08-19T05:44:25;19.80;99.90
8537;DHT22;4306;50.210;10.628;2022-08-19T05:46:53;19.90;99.90
8537;DHT22;4306;50.210;10.628;2022-08-19T05:49:21;19.90;99.90
8537;DHT22;4306;50.210;10.628;2022-08-19T05:51:50;19.90;99.90
8537;DHT22;4306;50.210;10.628;2022-08-19T05:54:17;19.90;99.90
8537;DHT22;4306;50.210;10.628;2022-08-19T05:56:44;19.80;99.90
8537;DHT22;4306;50.210;10.628;2022-08-19T05:59:15;19.80;99.90
8537;DHT22;4306;50.210;10.628;2022-08-19T06:01:44;19.60;99.90
8537;DHT22;4306;50.210;10.628;2022-08-19T06:04:12;19.80;99.90
8537;DHT22;4306;50.210;10.628;2022-08-19T06:06:40;19.70;99.90
8537;DHT22;4306;50.210;10.628;2022-08-19T06:09:08;19.80;99.90
8537;DHT22;4306;50.210;10.628;2022-08-19T06:11:39;19.80;99.90
8537;DHT22;4306;50.210;10.628;2022-08-19T06:14:08;19.80;99.90
8537;DHT22;4306;50.210;10.628;2022-08-19T06:16:37;19.90;99.90
8537;DHT22;4306;50.210;10.628;2022-08-19T06:19:06;19.80;99.90
8537;DHT22;4306;50.210;10.628;2022-08-19T06:21:35;19.70;99.90
8537;DHT22;4306;50.210;10.628;2022-08-19T06:24:04;19.70;99.90
8537;DHT22;4306;50.210;10.628;2022-08-19T06:26:33;19.80;99.90
8537;DHT22;4306;50.210;10.628;2022-08-19T06:29:01;19.80;99.90
8537;DHT22;4306;50.210;10.628;2022-08-19T06:31:29;19.70;99.90
8537;DHT22;4306;50.210;10.628;2022-08-19T06:33:59;19.80;99.90
8537;DHT22;4306;50.210;10.628;2022-08-19T06:36:29;19.80;99.90
8537;DHT22;4306;50.210;10.628;2022-08-19T06:38:57;19.80;99.90
8537;DHT22;4306;50.210;10.628;2022-08-19T06:41:25;19.70;99.90
8537;DHT22;4306;50.210;10.628;2022-08-19T06:43:54;19.60;99.90
8537;DHT22;4306;50.210;10.628;2022-08-19T06:46:22;19.70;99.90
8537;DHT22;4306;50.210;10.628;2022-08-19T06:48:49;19.70;99.90
8537;DHT22;4306;50.210;10.628;2022-08-19T06:51:19;19.80;99.90
8537;DHT22;4306;50.210;10.628;2022-08-19T06:53:48;19.80;99.90
8537;DHT22;4306;50.210;10.628;2022-08-19T06:56:17;19.70;99.90
8537;DHT22;4306;50.210;10.628;2022-08-19T06:58:45;19.70;99.90
8537;DHT22;4306;50.210;10.628;2022-08-19T07:01:14;19.80;99.90
8537;DHT22;4306;50.210;10.628;2022-08-19T07:03:46;19.80;99.90
8537;DHT22;4306;50.210;10.628;2022-08-19T07:06:18;19.90;99.90
8537;DHT22;4306;50.210;10.628;2022-08-19T07:08:47;19.90;99.90
8537;DHT22;4306;50.210;10.628;2022-08-19T07:11:17;20.00;99.90
8537;DHT22;4306;50.210;10.628;2022-08-19T07:13:45;20.00;99.90
8537;DHT22;4306;50.210;10.628;2022-08-19T07:16:17;19.90;99.90
8537;DHT22;4306;50.210;10.628;2022-08-19T07:18:45;20.10;99.90
8537;DHT22;4306;50.210;10.628;2022-08-19T07:21:14;20.20;99.90
8537;DHT22;4306;50.210;10.628;2022-08-19T07:23:42;20.10;99.90
8537;DHT22;4306;50.210;10.628;2022-08-19T07:26:13;20.10;99.90
8537;DHT22;4306;50.210;10.628;2022-08-19T07:28:46;20.10;99.90
8537;DHT22;4306;50.210;10.628;2022-08-19T07:31:23;20.20;99.90
8537;DHT22;4306;50.210;10.628;2022-08-19T07:33:56;20.30;99.90
8537;DHT22;4306;50.210;10.628;2022-08-19T07:36:25;20.30;99.90
8537;DHT22;4306;50.210;10.628;2022-08-19T07:38:59;20.20;99.90
8537;DHT22;4306;50.210;10.628;2022-08-19T07:41:28;20.30;99.90
8537;DHT22;4306;50.210;10.628;2022-08-19T07:43:59;20.40;99.90
8537;DHT22;4306;50.210;10.628;2022-08-19T07:46:31;20.50;99.90
8537;DHT22;4306;50.210;10.628;2022-08-19T07:48:59;20.60;99.90
8537;DHT22;4306;50.210;10.628;2022-08-19T07:51:28;20.60;99.90
8537;DHT22;4306;50.210;10.628;2022-08-19T07:53:55;20.70;99.90
8537;DHT22;4306;50.210;10.628;2022-08-19T07:56:23;20.70;99.90
8537;DHT22;4306;50.210;10.628;2022-08-19T07:58:53;20.70;99.90
8537;DHT22;4306;50.210;10.628;2022-08-19T08:01:22;20.90;99.90
8537;DHT22;4306;50.210;10.628;2022-08-19T08:03:55;20.60;99.90
8537;DHT22;4306;50.210;10.628;2022-08-19T08:06:40;20.70;99.90
8537;DHT22;4306;50.210;10.628;2022-08-19T08:09:29;20.70;99.90
8537;DHT22;4306;50.210;10.628;2022-08-19T08:11:59;20.70;99.90
8537;DHT22;4306;50.210;10.628;2022-08-19T08:14:29;20.60;99.90
8537;DHT22;4306;50.210;10.628;2022-08-19T08:16:57;20.60;99.90
8537;DHT22;4306;50.210;10.628;2022-08-19T08:19:27;20.70;99.90
8537;DHT22;4306;50.210;10.628;2022-08-19T08:21:56;20.80;99.90
8537;DHT22;4306;50.210;10.628;2022-08-19T08:24:23;20.90;99.90
8537;DHT22;4306;50.210;10.628;2022-08-19T08:26:50;20.90;99.90
8537;DHT22;4306;50.210;10.628;2022-08-19T08:29:18;21.00;99.90
8537;DHT22;4306;50.210;10.628;2022-08-19T08:31:46;21.00;99.90
8537;DHT22;4306;50.210;10.628;2022-08-19T08:34:14;21.10;99.90
8537;DHT22;4306;50.210;10.628;2022-08-19T08:36:46;21.00;99.90
8537;DHT22;4306;50.210;10.628;2022-08-19T08:39:15;21.00;99.90
8537;DHT22;4306;50.210;10.628;2022-08-19T08:41:49;21.10;99.90
8537;DHT22;4306;50.210;10.628;2022-08-19T08:44:22;20.90;99.90
8537;DHT22;4306;50.210;10.628;2022-08-19T08:46:51;20.80;99.90
8537;DHT22;4306;50.210;10.628;2022-08-19T08:49:28;20.90;99.90
8537;DHT22;4306;50.210;10.628;2022-08-19T08:52:02;20.90;99.90
8537;DHT22;4306;50.210;10.628;2022-08-19T08:54:33;21.00;99.90
8537;DHT22;4306;50.210;10.628;2022-08-19T08:57:05;21.00;99.90
8537;DHT22;4306;50.210;10.628;2022-08-19T08:59:36;21.00;99.90
8537;DHT22;4306;50.210;10.628;2022-08-19T09:02:04;20.90;99.90
8537;DHT22;4306;50.210;10.628;2022-08-19T09:04:31;20.90;99.90
8537;DHT22;4306;50.210;10.628;2022-08-19T09:07:12;21.00;99.90
8537;DHT22;4306;50.210;10.628;2022-08-19T09:09:45;20.90;99.90
8537;DHT22;4306;50.210;10.628;2022-08-19T09:12:21;21.00;99.90
8537;DHT22;4306;50.210;10.628;2022-08-19T09:14:54;21.00;99.90
8537;DHT22;4306;50.210;10.628;2022-08-19T09:17:24;21.00;99.90
8537;DHT22;4306;50.210;10.628;2022-08-19T09:19:58;20.90;99.90
8537;DHT22;4306;50.210;10.628;2022-08-19T09:22:27;21.00;99.90
8537;DHT22;4306;50.210;10.628;2022-08-19T09:24:55;21.10;99.90
8537;DHT22;4306;50.210;10.628;2022-08-19T09:27:23;21.10;99.90
8537;DHT22;4306;50.210;10.628;2022-08-19T09:29:50;21.10;99.90
8537;DHT22;4306;50.210;10.628;2022-08-19T09:32:19;21.20;99.90
8537;DHT22;4306;50.210;10.628;2022-08-19T09:34:46;21.20;99.90
8537;DHT22;4306;50.210;10.628;2022-08-19T09:37:14;21.20;99.90
8537;DHT22;4306;50.210;10.628;2022-08-19T09:39:42;21.30;99.90
8537;DHT22;4306;50.210;10.628;2022-08-19T09:42:09;21.40;99.90
8537;DHT22;4306;50.210;10.628;2022-08-19T09:44:38;21.40;99.90
8537;DHT22;4306;50.210;10.628;2022-08-19T09:47:05;21.40;99.90
8537;DHT22;4306;50.210;10.628;2022-08-19T09:49:33;21.60;99.90
8537;DHT22;4306;50.210;10.628;2022-08-19T09:52:00;21.70;99.90
8537;DHT22;4306;50.210;10.628;2022-08-19T09:54:27;21.80;99.90
8537;DHT22;4306;50.210;10.628;2022-08-19T09:56:58;21.80;99.90
8537;DHT22;4306;50.210;10.628;2022-08-19T09:59:27;21.90;99.90
8537;DHT22;4306;50.210;10.628;2022-08-19T10:01:56;22.10;99.90
8537;DHT22;4306;50.210;10.628;2022-08-19T10:04:24;22.20;99.90
8537;DHT22;4306;50.210;10.628;2022-08-19T10:07:13;22.10;99.90
8537;DHT22;4306;50.210;10.628;2022-08-19T10:09:40;22.30;99.90
8537;DHT22;4306;50.210;10.628;2022-08-19T10:12:09;22.40;99.90
8537;DHT22;4306;50.210;10.628;2022-08-19T10:14:36;22.40;99.90
8537;DHT22;4306;50.210;10.628;2022-08-19T10:17:03;22.40;99.90
8537;DHT22;4306;50.210;10.628;2022-08-19T10:19:30;22.60;99.90
8537;DHT22;4306;50.210;10.628;2022-08-19T10:22:04;22.70;99.90
8537;DHT22;4306;50.210;10.628;2022-08-19T10:24:32;22.70;99.90
8537;DHT22;4306;50.210;10.628;2022-08-19T10:26:59;22.70;99.90
8537;DHT22;4306;50.210;10.628;2022-08-19T10:29:30;22.60;99.90
8537;DHT22;4306;50.210;10.628;2022-08-19T10:32:00;22.70;99.90
8537;DHT22;4306;50.210;10.628;2022-08-19T10:34:29;22.70;99.90
8537;DHT22;4306;50.210;10.628;2022-08-19T10:36:56;22.80;99.90
8537;DHT22;4306;50.210;10.628;2022-08-19T10:39:24;22.80;99.90
8537;DHT22;4306;50.210;10.628;2022-08-19T10:41:51;22.70;99.90
8537;DHT22;4306;50.210;10.628;2022-08-19T10:44:18;22.80;99.90
8537;DHT22;4306;50.210;10.628;2022-08-19T10:46:46;22.90;99.90
8537;DHT22;4306;50.210;10.628;2022-08-19T10:49:13;23.00;99.90
8537;DHT22;4306;50.210;10.628;2022-08-19T10:51:41;23.00;99.90
8537;DHT22;4306;50.210;10.628;2022-08-19T10:54:27;23.00;99.90
8537;DHT22;4306;50.210;10.628;2022-08-19T10:57:08;23.00;99.90
8537;DHT22;4306;50.210;10.628;2022-08-19T10:59:36;23.00;99.90
8537;DHT22;4306;50.210;10.628;2022-08-19T11:02:07;23.20;99.90
8537;DHT22;4306;50.210;10.628;2022-08-19T11:04:35;23.00;99.90
8537;DHT22;4306;50.210;10.628;2022-08-19T11:07:03;23.00;99.90
8537;DHT22;4306;50.210;10.628;2022-08-19T11:09:30;23.10;99.90
8537;DHT22;4306;50.210;10.628;2022-08-19T11:11:57;23.10;99.90
8537;DHT22;4306;50.210;10.628;2022-08-19T11:14:24;23.00;99.90
8537;DHT22;4306;50.210;10.628;2022-08-19T11:16:52;23.10;99.90
8537;DHT22;4306;50.210;10.628;2022-08-19T11:19:22;23.20;99.90
8537;DHT22;4306;50.210;10.628;2022-08-19T11:21:51;23.20;99.90
8537;DHT22;4306;50.210;10.628;2022-08-19T11:24:22;23.20;99.90
8537;DHT22;4306;50.210;10.628;2022-08-19T11:26:51;23.20;99.90
8537;DHT22;4306;50.210;10.628;2022-08-19T11:29:20;23.30;99.90
8537;DHT22;4306;50.210;10.628;2022-08-19T11:31:51;23.40;99.90
8537;DHT22;4306;50.210;10.628;2022-08-19T11:34:22;23.30;99.90
8537;DHT22;4306;50.210;10.628;2022-08-19T11:36:50;23.40;99.90
8537;DHT22;4306;50.210;10.628;2022-08-19T11:39:20;23.40;99.90
8537;DHT22;4306;50.210;10.628;2022-08-19T11:41:47;23.40;99.90
8537;DHT22;4306;50.210;10.628;2022-08-19T11:44:15;23.40;99.90
8537;DHT22;4306;50.210;10.628;2022-08-19T11:46:43;23.40;99.90
8537;DHT22;4306;50.210;10.628;2022-08-19T11:49:12;23.20;99.90
8537;DHT22;4306;50.210;10.628;2022-08-19T11:51:41;23.20;99.90
8537;DHT22;4306;50.210;10.628;2022-08-19T11:54:09;23.20;99.90
8537;DHT22;4306;50.210;10.628;2022-08-19T11:56:36;23.20;99.90
8537;DHT22;4306;50.210;10.628;2022-08-19T11:59:04;23.20;99.90
8537;DHT22;4306;50.210;10.628;2022-08-19T12:01:31;23.30;99.90
8537;DHT22;4306;50.210;10.628;2022-08-19T12:03:58;23.30;99.90
8537;DHT22;4306;50.210;10.628;2022-08-19T12:06:28;23.30;99.90
8537;DHT22;4306;50.210;10.628;2022-08-19T12:08:58;23.20;99.90
8537;DHT22;4306;50.210;10.628;2022-08-19T12:11:26;23.30;99.90
8537;DHT22;4306;50.210;10.628;2022-08-19T12:13:53;23.40;99.90
8537;DHT22;4306;50.210;10.628;2022-08-19T12:16:22;23.50;99.90
8537;DHT22;4306;50.210;10.628;2022-08-19T12:18:50;23.60;99.90
8537;DHT22;4306;50.210;10.628;2022-08-19T12:21:19;23.60;99.90
8537;DHT22;4306;50.210;10.628;2022-08-19T12:23:48;23.70;99.90
8537;DHT22;4306;50.210;10.628;2022-08-19T12:26:17;23.90;99.90
8537;DHT22;4306;50.210;10.628;2022-08-19T12:28:44;24.00;99.90
8537;DHT22;4306;50.210;10.628;2022-08-19T12:31:14;24.10;99.90
8537;DHT22;4306;50.210;10.628;2022-08-19T12:33:42;24.20;99.90
8537;DHT22;4306;50.210;10.628;2022-08-19T12:36:11;24.20;99.90
8537;DHT22;4306;50.210;10.628;2022-08-19T12:38:39;24.10;99.90
8537;DHT22;4306;50.210;10.628;2022-08-19T12:41:09;24.30;99.90
8537;DHT22;4306;50.210;10.628;2022-08-19T12:43:38;24.30;99.90
8537;DHT22;4306;50.210;10.628;2022-08-19T12:46:05;24.40;99.90
8537;DHT22;4306;50.210;10.628;2022-08-19T12:48:33;24.40;99.90
8537;DHT22;4306;50.210;10.628;2022-08-19T12:51:01;24.40;99.80
8537;DHT22;4306;50.210;10.628;2022-08-19T12:53:32;24.30;98.90
8537;DHT22;4306;50.210;10.628;2022-08-19T12:55:59;24.20;98.70
8537;DHT22;4306;50.210;10.628;2022-08-19T12:58:26;24.40;99.90
8537;DHT22;4306;50.210;10.628;2022-08-19T13:00:55;24.40;98.60
8537;DHT22;4306;50.210;10.628;2022-08-19T13:03:22;24.50;99.40
8537;DHT22;4306;50.210;10.628;2022-08-19T13:05:55;24.40;98.20
8537;DHT22;4306;50.210;10.628;2022-08-19T13:08:22;24.50;98.60
8537;DHT22;4306;50.210;10.628;2022-08-19T13:10:49;24.70;98.10
8537;DHT22;4306;50.210;10.628;2022-08-19T13:13:16;24.70;95.40
8537;DHT22;4306;50.210;10.628;2022-08-19T13:15:43;24.70;96.30
8537;DHT22;4306;50.210;10.628;2022-08-19T13:18:12;24.70;95.20
8537;DHT22;4306;50.210;10.628;2022-08-19T13:20:40;24.70;94.90
8537;DHT22;4306;50.210;10.628;2022-08-19T13:23:07;24.70;95.20
8537;DHT22;4306;50.210;10.628;2022-08-19T13:25:35;24.80;94.90
8537;DHT22;4306;50.210;10.628;2022-08-19T13:28:02;24.80;93.50
8537;DHT22;4306;50.210;10.628;2022-08-19T13:30:32;24.90;94.40
8537;DHT22;4306;50.210;10.628;2022-08-19T13:33:18;25.00;94.00
8537;DHT22;4306;50.210;10.628;2022-08-19T13:35:47;25.00;94.30
8537;DHT22;4306;50.210;10.628;2022-08-19T13:38:16;25.00;93.60
8537;DHT22;4306;50.210;10.628;2022-08-19T13:40:44;25.00;94.30
8537;DHT22;4306;50.210;10.628;2022-08-19T13:43:11;24.90;93.40
8537;DHT22;4306;50.210;10.628;2022-08-19T13:45:39;24.90;94.60
8537;DHT22;4306;50.210;10.628;2022-08-19T13:48:07;25.00;94.00
8537;DHT22;4306;50.210;10.628;2022-08-19T13:50:38;24.80;93.40
8537;DHT22;4306;50.210;10.628;2022-08-19T13:53:07;24.50;93.80
8537;DHT22;4306;50.210;10.628;2022-08-19T13:55:35;24.50;94.10
8537;DHT22;4306;50.210;10.628;2022-08-19T13:58:02;24.40;94.20
8537;DHT22;4306;50.210;10.628;2022-08-19T14:00:30;24.20;94.10
8537;DHT22;4306;50.210;10.628;2022-08-19T14:02:58;24.30;94.40
8537;DHT22;4306;50.210;10.628;2022-08-19T14:05:26;24.20;94.10
8537;DHT22;4306;50.210;10.628;2022-08-19T14:07:55;24.10;94.00
8537;DHT22;4306;50.210;10.628;2022-08-19T14:10:23;24.10;93.80
8537;DHT22;4306;50.210;10.628;2022-08-19T14:12:53;24.00;94.10
8537;DHT22;4306;50.210;10.628;2022-08-19T14:15:21;23.90;94.10
8537;DHT22;4306;50.210;10.628;2022-08-19T14:17:48;24.00;94.50
8537;DHT22;4306;50.210;10.628;2022-08-19T14:20:16;24.00;93.90
8537;DHT22;4306;50.210;10.628;2022-08-19T14:22:44;23.90;94.00
8537;DHT22;4306;50.210;10.628;2022-08-19T14:25:22;24.00;93.60
8537;DHT22;4306;50.210;10.628;2022-08-19T14:27:49;24.00;94.00
8537;DHT22;4306;50.210;10.628;2022-08-19T14:30:18;24.00;94.10
8537;DHT22;4306;50.210;10.628;2022-08-19T14:32:46;23.90;93.50
8537;DHT22;4306;50.210;10.628;2022-08-19T14:35:14;24.00;93.90
8537;DHT22;4306;50.210;10.628;2022-08-19T14:37:42;24.10;93.80
8537;DHT22;4306;50.210;10.628;2022-08-19T14:40:12;24.20;93.80
8537;DHT22;4306;50.210;10.628;2022-08-19T14:42:39;24.20;93.40
8537;DHT22;4306;50.210;10.628;2022-08-19T14:45:07;24.30;93.40
8537;DHT22;4306;50.210;10.628;2022-08-19T14:47:34;24.30;93.30
8537;DHT22;4306;50.210;10.628;2022-08-19T14:50:02;24.20;92.90
8537;DHT22;4306;50.210;10.628;2022-08-19T14:52:29;24.30;92.80
8537;DHT22;4306;50.210;10.628;2022-08-19T14:54:56;24.20;92.50
8537;DHT22;4306;50.210;10.628;2022-08-19T14:57:24;24.10;92.50
8537;DHT22;4306;50.210;10.628;2022-08-19T14:59:51;24.20;92.70
8537;DHT22;4306;50.210;10.628;2022-08-19T15:02:18;24.10;92.20
8537;DHT22;4306;50.210;10.628;2022-08-19T15:04:45;24.20;92.50
8537;DHT22;4306;50.210;10.628;2022-08-19T15:07:12;24.30;93.00
8537;DHT22;4306;50.210;10.628;2022-08-19T15:09:39;24.40;92.20
8537;DHT22;4306;50.210;10.628;2022-08-19T15:12:07;24.30;92.00
8537;DHT22;4306;50.210;10.628;2022-08-19T15:14:37;24.30;92.00
8537;DHT22;4306;50.210;10.628;2022-08-19T15:17:05;24.50;92.40
8537;DHT22;4306;50.210;10.628;2022-08-19T15:19:32;24.50;92.60
8537;DHT22;4306;50.210;10.628;2022-08-19T15:22:01;24.50;92.10
8537;DHT22;4306;50.210;10.628;2022-08-19T15:24:28;24.50;92.10
8537;DHT22;4306;50.210;10.628;2022-08-19T15:26:55;24.60;92.30
8537;DHT22;4306;50.210;10.628;2022-08-19T15:29:22;24.50;91.80
8537;DHT22;4306;50.210;10.628;2022-08-19T15:31:52;24.70;92.40
8537;DHT22;4306;50.210;10.628;2022-08-19T15:34:20;24.70;91.60
8537;DHT22;4306;50.210;10.628;2022-08-19T15:36:47;24.70;92.30
8537;DHT22;4306;50.210;10.628;2022-08-19T15:39:14;24.70;92.00
8537;DHT22;4306;50.210;10.628;2022-08-19T15:41:41;24.80;91.70
8537;DHT22;4306;50.210;10.628;2022-08-19T15:44:12;24.70;90.70
8537;DHT22;4306;50.210;10.628;2022-08-19T15:46:44;24.70;91.00
8537;DHT22;4306;50.210;10.628;2022-08-19T15:49:14;24.60;91.00
8537;DHT22;4306;50.210;10.628;2022-08-19T15:51:43;24.50;90.90
8537;DHT22;4306;50.210;10.628;2022-08-19T15:54:13;24.50;90.90
8537;DHT22;4306;50.210;10.628;2022-08-19T15:56:41;24.50;91.20